createdAt,value
2023-05-11T00:00:26.946Z,4.03
2023-05-11T00:05:28.585Z,4.25
2023-05-11T00:10:30.417Z,4.15
2023-05-11T00:15:31.980Z,4.30
2023-05-11T00:20:33.605Z,4.70
2023-05-11T00:25:35.185Z,4.50
2023-05-11T00:30:36.793Z,4.70
2023-05-11T00:35:38.472Z,4.35
2023-05-11T00:40:40.209Z,4.38
2023-05-11T00:45:41.787Z,4.53
2023-05-11T00:50:43.612Z,4.60
2023-05-11T00:55:45.313Z,4.10
2023-05-11T01:00:49.558Z,4.53
2023-05-11T01:06:28.980Z,4.43
2023-05-11T01:11:36.403Z,4.70
2023-05-11T01:16:40.921Z,4.63
2023-05-11T01:21:43.858Z,4.93
2023-05-11T01:27:07.506Z,5.00
2023-05-11T01:32:15.947Z,5.10
2023-05-11T01:37:23.123Z,4.57
2023-05-11T01:42:30.567Z,4.68
2023-05-11T01:47:32.318Z,4.50
2023-05-11T01:52:35.628Z,4.75
2023-05-11T01:57:38.338Z,4.75
2023-05-11T02:02:41.409Z,4.75
2023-05-11T02:07:44.286Z,4.13
2023-05-11T02:12:46.717Z,4.43
2023-05-11T02:17:50.924Z,4.47
2023-05-11T02:22:54.003Z,4.70
2023-05-11T02:27:55.594Z,4.15
2023-05-11T02:32:59.161Z,4.60
2023-05-11T02:38:03.121Z,4.32
2023-05-11T02:43:11.525Z,4.63
2023-05-11T02:48:22.811Z,4.93
2023-05-11T02:53:27.830Z,4.90
2023-05-11T02:58:30.355Z,4.22
2023-05-11T03:03:44.995Z,4.15
2023-05-11T03:08:47.867Z,4.78
2023-05-11T03:13:51.285Z,4.60
2023-05-11T03:18:55.502Z,4.70
2023-05-11T03:23:57.956Z,4.90
2023-05-11T03:29:00.302Z,4.30
2023-05-11T03:34:01.995Z,4.00
2023-05-11T03:39:09.087Z,4.40
2023-05-11T03:44:12.195Z,4.13
2023-05-11T03:49:17.032Z,4.22
2023-05-11T03:54:18.772Z,4.18
2023-05-11T03:59:20.892Z,4.22
2023-05-11T04:04:29.843Z,4.40
2023-05-11T04:09:33.419Z,4.03
2023-05-11T04:14:35.037Z,4.20
2023-05-11T04:19:36.655Z,3.80
2023-05-11T04:24:38.804Z,3.55
2023-05-11T04:29:40.471Z,3.88
2023-05-11T04:34:42.497Z,3.38
2023-05-11T04:39:45.230Z,3.60
2023-05-11T04:44:47.029Z,3.92
2023-05-11T04:49:52.739Z,3.53
2023-05-11T04:54:54.585Z,3.47
2023-05-11T04:59:56.504Z,3.65
2023-05-11T05:04:58.388Z,4.13
2023-05-11T05:09:59.969Z,3.70
2023-05-11T05:15:01.552Z,3.90
2023-05-11T05:20:04.504Z,3.35
2023-05-11T05:25:06.723Z,3.55
2023-05-11T05:30:08.890Z,3.80
2023-05-11T05:35:10.640Z,3.63
2023-05-11T05:40:12.971Z,3.60
2023-05-11T05:45:22.201Z,3.53
2023-05-11T05:50:24.907Z,12.20
2023-05-11T05:55:26.846Z,3.47
2023-05-11T06:00:29.941Z,3.03
2023-05-11T06:05:38.182Z,3.15
2023-05-11T06:10:39.894Z,3.05
2023-05-11T06:15:44.115Z,3.03
2023-05-11T06:21:06.056Z,2.80
2023-05-11T06:26:08.149Z,3.20
2023-05-11T06:31:10.406Z,2.80
2023-05-11T06:36:14.407Z,2.63
2023-05-11T06:41:16.304Z,3.35
2023-05-11T06:46:18.086Z,2.83
2023-05-11T06:51:21.905Z,3.10
2023-05-11T06:56:23.606Z,2.90
2023-05-11T07:01:25.209Z,2.92
2023-05-11T07:06:27.676Z,2.72
2023-05-11T07:11:30.820Z,2.67
2023-05-11T07:16:32.544Z,2.72
2023-05-11T07:21:34.961Z,2.70
2023-05-11T07:26:36.534Z,2.50
2023-05-11T07:31:38.198Z,3.05
2023-05-11T07:36:39.820Z,2.80
2023-05-11T07:41:41.459Z,2.30
2023-05-11T07:46:43.127Z,2.85
2023-05-11T07:51:44.829Z,2.83
2023-05-11T07:56:46.424Z,2.75
2023-05-11T08:01:48.069Z,2.63
2023-05-11T08:06:49.868Z,2.72
2023-05-11T08:11:51.526Z,2.90
2023-05-11T08:16:53.263Z,2.28
2023-05-11T08:21:54.820Z,2.80
2023-05-11T08:26:56.714Z,2.88
2023-05-11T08:31:58.889Z,2.58
2023-05-11T08:37:04.379Z,2.67
2023-05-11T08:42:07.052Z,2.75
2023-05-11T08:47:21.242Z,2.40
2023-05-11T08:52:25.965Z,2.60
2023-05-11T08:57:29.266Z,2.30
2023-05-11T09:02:31.836Z,2.50
2023-05-11T09:07:37.298Z,2.70
2023-05-11T09:12:39.252Z,2.58
2023-05-11T09:17:40.930Z,2.50
2023-05-11T09:22:46.768Z,2.40
2023-05-11T09:27:48.631Z,2.20
2023-05-11T09:32:56.792Z,2.50
2023-05-11T09:38:12.250Z,2.33
2023-05-11T09:43:22.831Z,2.67
2023-05-11T09:48:26.676Z,2.28
2023-05-11T09:53:54.624Z,2.47
2023-05-11T09:58:57.547Z,2.45
2023-05-11T10:04:13.925Z,2.20
2023-05-11T10:09:24.740Z,2.50
2023-05-11T10:14:27.692Z,2.55
2023-05-11T10:19:29.292Z,1.90
2023-05-11T10:24:31.635Z,2.08
2023-05-11T10:29:34.172Z,2.40
2023-05-11T10:34:36.754Z,2.20
2023-05-11T10:39:41.802Z,2.38
2023-05-11T10:45:01.561Z,2.03
2023-05-11T10:50:14.991Z,2.00
2023-05-11T10:55:28.034Z,1.70
2023-05-11T11:00:48.247Z,2.13
2023-05-11T11:05:50.036Z,2.00
2023-05-11T11:10:51.922Z,2.03
2023-05-11T11:15:53.905Z,2.03
2023-05-11T11:20:57.131Z,1.60
2023-05-11T11:25:58.857Z,2.15
2023-05-11T11:31:23.423Z,2.00
2023-05-11T11:37:03.852Z,2.20
2023-05-11T11:42:07.259Z,2.10
2023-05-11T11:47:21.550Z,1.83
2023-05-11T11:52:29.121Z,2.20
2023-05-11T11:57:37.916Z,1.90
2023-05-11T12:02:44.255Z,2.10
2023-05-11T12:07:49.847Z,2.08
2023-05-11T12:12:55.032Z,2.08
2023-05-11T12:17:57.075Z,2.15
2023-05-11T12:22:58.777Z,1.98
2023-05-11T12:28:02.919Z,2.20
2023-05-11T12:33:07.965Z,1.95
2023-05-11T12:38:11.118Z,1.90
2023-05-11T12:43:17.996Z,2.10
2023-05-11T12:48:19.574Z,2.00
2023-05-11T12:53:22.099Z,2.10
2023-05-11T12:58:23.672Z,1.95
2023-05-11T13:03:30.513Z,1.60
2023-05-11T13:08:32.188Z,2.03
2023-05-11T13:13:33.783Z,1.90
2023-05-11T13:18:35.553Z,1.80
2023-05-11T13:23:37.175Z,1.83
2023-05-11T13:28:38.793Z,1.73
2023-05-11T13:33:40.420Z,2.00
2023-05-11T13:38:42.160Z,1.92
2023-05-11T13:43:45.031Z,1.85
2023-05-11T13:48:46.620Z,1.90
2023-05-11T13:53:48.486Z,2.10
2023-05-11T13:58:50.058Z,1.92
2023-05-11T14:03:52.706Z,1.90
2023-05-11T14:08:54.506Z,1.90
2023-05-11T14:13:56.172Z,2.03
2023-05-11T14:18:57.859Z,2.08
2023-05-11T14:24:10.874Z,1.60
2023-05-11T14:29:15.656Z,1.83
2023-05-11T14:34:17.761Z,2.00
2023-05-11T14:39:19.334Z,1.88
2023-05-11T14:44:25.260Z,1.80
2023-05-11T14:49:27.030Z,1.65
2023-05-11T14:54:28.563Z,1.60
2023-05-11T14:59:30.122Z,2.00
2023-05-11T15:04:33.661Z,1.77
2023-05-11T15:09:35.879Z,2.00
2023-05-11T15:14:37.440Z,1.65
2023-05-11T15:19:39.026Z,1.80
2023-05-11T15:24:41.204Z,1.80
2023-05-11T15:29:42.860Z,1.70
2023-05-11T15:34:58.679Z,1.80
2023-05-11T15:40:01.831Z,1.98
2023-05-11T15:45:03.630Z,1.60
2023-05-11T15:50:05.651Z,1.77
2023-05-11T15:55:07.702Z,1.63
2023-05-11T16:00:10.541Z,1.88
2023-05-11T16:05:12.255Z,1.70
2023-05-11T16:10:13.904Z,1.80
2023-05-11T16:15:15.689Z,1.65
2023-05-11T16:20:17.504Z,1.90
2023-05-11T16:25:19.291Z,1.70
2023-05-11T16:30:24.433Z,1.92
2023-05-11T16:35:27.066Z,1.90
2023-05-11T16:40:28.692Z,1.80
2023-05-11T16:45:30.290Z,1.70
2023-05-11T16:50:32.453Z,2.22
2023-05-11T16:55:34.061Z,1.80
2023-05-11T17:00:36.116Z,1.77
2023-05-11T17:05:37.764Z,1.92
2023-05-11T17:10:40.740Z,2.00
2023-05-11T17:15:42.316Z,1.90
2023-05-11T17:20:43.927Z,1.80
2023-05-11T17:25:45.519Z,1.90
2023-05-11T17:30:51.228Z,1.67
2023-05-11T17:35:52.826Z,1.75
2023-05-11T17:40:54.375Z,1.77
2023-05-11T17:45:56.044Z,1.95
2023-05-11T17:50:57.946Z,1.80
2023-05-11T17:55:59.946Z,1.83
2023-05-11T18:01:08.429Z,1.90
2023-05-11T18:06:10.102Z,2.03
2023-05-11T18:11:12.820Z,2.25
2023-05-11T18:16:14.654Z,2.17
2023-05-11T18:21:16.391Z,1.85
2023-05-11T18:26:19.229Z,2.40
2023-05-11T18:31:21.917Z,2.00
2023-05-11T18:36:23.781Z,2.40
2023-05-11T18:41:25.375Z,2.20
2023-05-11T18:46:27.158Z,2.15
2023-05-11T18:51:29.323Z,2.38
2023-05-11T18:56:30.978Z,2.42
2023-05-11T19:01:46.568Z,1.85
2023-05-11T19:06:49.463Z,2.25
2023-05-11T19:11:51.095Z,2.40
2023-05-11T19:16:52.771Z,2.30
2023-05-11T19:21:54.389Z,2.42
2023-05-11T19:27:06.458Z,2.45
2023-05-11T19:32:08.752Z,2.15
2023-05-11T19:37:10.452Z,2.42
2023-05-11T19:42:12.069Z,2.15
2023-05-11T19:47:13.729Z,2.40
2023-05-11T19:52:15.333Z,2.30
2023-05-11T19:57:17.302Z,2.80
2023-05-11T20:02:19.028Z,2.70
2023-05-11T20:07:20.753Z,2.67
2023-05-11T20:12:22.464Z,2.67
2023-05-11T20:17:24.117Z,1.92
2023-05-11T20:22:26.364Z,2.33
2023-05-11T20:27:27.945Z,2.60
2023-05-11T20:32:29.570Z,2.42
2023-05-11T20:37:32.201Z,2.38
2023-05-11T20:42:33.884Z,2.65
2023-05-11T20:47:35.498Z,2.33
2023-05-11T20:52:37.509Z,2.40
2023-05-11T20:57:39.334Z,2.67
2023-05-11T21:02:41.123Z,2.60
2023-05-11T21:07:42.723Z,2.15
2023-05-11T21:12:44.304Z,2.70
2023-05-11T21:17:46.085Z,2.70
2023-05-11T21:22:48.021Z,2.58
2023-05-11T21:27:49.603Z,2.33
2023-05-11T21:32:51.173Z,2.78
2023-05-11T21:37:52.777Z,2.85
2023-05-11T21:42:54.352Z,2.50
2023-05-11T21:47:56.161Z,2.58
2023-05-11T21:52:57.934Z,2.70
2023-05-11T21:57:59.701Z,2.50
2023-05-11T22:03:01.801Z,2.33
2023-05-11T22:08:13.813Z,2.60
2023-05-11T22:13:16.733Z,2.80
2023-05-11T22:18:18.615Z,2.85
2023-05-11T22:23:21.030Z,2.88
2023-05-11T22:28:22.911Z,2.83
2023-05-11T22:33:25.031Z,2.45
2023-05-11T22:38:26.861Z,2.45
2023-05-11T22:43:28.631Z,2.65
2023-05-11T22:48:30.395Z,3.20
2023-05-11T22:53:32.570Z,2.78
2023-05-11T22:58:34.280Z,2.70
2023-05-11T23:03:35.992Z,3.50
2023-05-11T23:08:37.631Z,3.20
2023-05-11T23:13:40.533Z,2.78
2023-05-11T23:18:44.012Z,2.85
2023-05-11T23:23:45.702Z,3.13
2023-05-11T23:28:47.272Z,3.08
2023-05-11T23:33:48.811Z,3.05
2023-05-11T23:38:50.371Z,2.70
2023-05-11T23:43:52.002Z,2.63
2023-05-11T23:48:53.564Z,3.25
2023-05-11T23:53:55.189Z,2.65
2023-05-11T23:58:56.733Z,2.88
